Time;durP1;ratioP1;P1;durP2;ratioP2;P2;SDS_P1;SDS_P2;PMS_P1;PMS_P2;Temp;Humidity;BMP_temperature;BMP_pressure;BME280_temperature;BME280_humidity;BME280_pressure;Samples;Min_cycle;Max_cycle;Signal;HPM_P1;HPM_P2
2022/09/30 00:00:55;;;;;;;4.53;2.72;;;8.00;99.90;;;;;;5067325;28;20232;-67
2022/09/30 00:03:23;;;;;;;3.78;2.90;;;8.00;99.90;;;;;;5066374;28;20250;-67
2022/09/30 00:05:56;;;;;;;2.63;2.42;;;8.00;99.90;;;;;;5067392;28;20688;-66
2022/09/30 00:08:24;;;;;;;6.07;2.80;;;8.00;99.90;;;;;;5067396;28;20229;-66
2022/09/30 00:10:59;;;;;;;4.93;2.35;;;8.00;99.90;;;;;;5067026;28;20235;-67
2022/09/30 00:13:26;;;;;;;4.18;2.78;;;8.10;99.90;;;;;;5066442;28;20306;-67
2022/09/30 00:15:53;;;;;;;4.03;2.90;;;8.10;99.90;;;;;;5066928;28;20219;-67
2022/09/30 00:18:20;;;;;;;3.42;3.13;;;8.00;99.90;;;;;;5066624;28;20204;-67
2022/09/30 00:20:46;;;;;;;3.25;2.65;;;8.10;99.90;;;;;;5066690;28;20205;-66
2022/09/30 00:23:13;;;;;;;2.95;2.60;;;8.10;99.90;;;;;;5066467;28;20774;-67
2022/09/30 00:25:41;;;;;;;2.45;2.25;;;8.10;99.90;;;;;;5066759;28;20207;-67
2022/09/30 00:28:08;;;;;;;2.63;2.42;;;8.20;99.90;;;;;;5066611;28;20207;-67
2022/09/30 00:30:35;;;;;;;6.25;2.60;;;8.20;99.90;;;;;;5067189;28;20205;-67
2022/09/30 00:33:01;;;;;;;3.17;2.38;;;8.20;99.90;;;;;;5066667;28;20223;-66
2022/09/30 00:35:28;;;;;;;4.47;2.85;;;8.20;99.90;;;;;;5067071;28;20203;-67
2022/09/30 00:37:55;;;;;;;2.65;2.45;;;8.20;99.90;;;;;;5067205;28;20639;-66
2022/09/30 00:40:22;;;;;;;3.70;2.75;;;8.20;99.90;;;;;;5066589;28;20201;-67
2022/09/30 00:42:50;;;;;;;3.33;2.83;;;8.30;99.90;;;;;;5066365;28;20660;-67
2022/09/30 00:45:17;;;;;;;6.05;3.53;;;8.30;99.90;;;;;;5066971;28;20404;-67
2022/09/30 00:47:49;;;;;;;4.00;3.03;;;8.30;99.90;;;;;;5067120;28;20671;-67
2022/09/30 00:50:35;;;;;;;4.25;3.05;;;8.30;99.90;;;;;;5067005;28;20197;-67
2022/09/30 00:53:08;;;;;;;2.97;2.67;;;8.30;99.90;;;;;;5066240;28;20225;-67
2022/09/30 00:55:46;;;;;;;2.80;2.55;;;8.30;99.90;;;;;;5066662;28;20205;-67
2022/09/30 00:58:20;;;;;;;3.70;2.90;;;8.40;99.90;;;;;;5067074;28;20540;-68
2022/09/30 01:00:48;;;;;;;2.88;2.55;;;8.40;99.90;;;;;;5066943;28;20204;-67
2022/09/30 01:03:14;;;;;;;2.63;2.20;;;8.40;99.90;;;;;;5066220;28;20353;-67
2022/09/30 01:05:42;;;;;;;3.58;2.60;;;8.40;99.90;;;;;;5066823;28;20530;-67
2022/09/30 01:08:10;;;;;;;4.50;2.90;;;8.40;99.90;;;;;;5066931;28;20671;-67
2022/09/30 01:10:37;;;;;;;4.95;3.10;;;8.40;99.90;;;;;;5066612;28;20222;-67
2022/09/30 01:13:04;;;;;;;2.90;2.53;;;8.40;99.90;;;;;;5065963;28;20227;-66
2022/09/30 01:15:47;;;;;;;3.17;2.85;;;8.40;99.90;;;;;;5066523;28;20201;-67
2022/09/30 01:18:24;;;;;;;4.68;3.28;;;8.40;99.90;;;;;;5066560;28;20204;-67
2022/09/30 01:21:40;;;;;;;3.50;2.78;;;8.40;99.90;;;;;;5066706;28;20211;-67
2022/09/30 01:24:34;;;;;;;4.28;3.47;;;8.40;99.90;;;;;;5066342;28;20252;-67
2022/09/30 01:27:37;;;;;;;3.55;2.88;;;8.40;99.90;;;;;;5066790;28;20220;-67
2022/09/30 01:33:04;;;;;;;3.40;3.10;;;8.40;99.90;;;;;;5099612;22;20835;-92
2022/09/30 01:35:41;;;;;;;4.05;3.10;;;8.40;99.90;;;;;;5057890;28;20272;-92
2022/09/30 01:38:17;;;;;;;3.10;2.80;;;8.50;99.90;;;;;;5060899;28;20197;-92
2022/09/30 01:41:05;;;;;;;3.58;2.80;;;8.50;99.90;;;;;;5060599;28;20721;-92
2022/09/30 01:43:44;;;;;;;3.75;2.63;;;8.50;99.90;;;;;;5062174;28;20204;-92
2022/09/30 01:46:22;;;;;;;2.72;2.40;;;8.50;99.90;;;;;;5063330;28;20686;-91
2022/09/30 01:49:19;;;;;;;3.20;2.80;;;8.50;99.90;;;;;;5069751;28;20212;-93
2022/09/30 01:51:58;;;;;;;2.83;2.63;;;8.50;99.90;;;;;;5061822;28;20230;-91
2022/09/30 01:54:33;;;;;;;4.25;2.70;;;8.50;99.90;;;;;;5066478;28;20212;-91
2022/09/30 01:57:07;;;;;;;3.53;3.03;;;8.50;99.90;;;;;;5065058;28;20214;-92
2022/09/30 01:59:41;;;;;;;3.55;3.25;;;8.50;99.90;;;;;;5065900;28;20223;-92
2022/09/30 02:02:14;;;;;;;3.30;3.00;;;8.50;99.90;;;;;;5065388;28;20281;-92
2022/09/30 02:04:45;;;;;;;4.05;3.20;;;8.50;99.90;;;;;;5076938;28;20256;-92
2022/09/30 02:07:20;;;;;;;3.75;3.40;;;8.50;99.90;;;;;;5066244;28;20208;-92
2022/09/30 02:09:52;;;;;;;3.50;3.15;;;8.50;99.90;;;;;;5075638;28;20197;-92
2022/09/30 02:12:24;;;;;;;3.40;3.10;;;8.50;99.90;;;;;;5076780;28;20241;-91
2022/09/30 02:14:58;;;;;;;3.85;3.28;;;8.50;99.90;;;;;;5077669;28;20271;-92
2022/09/30 02:17:30;;;;;;;3.60;3.30;;;8.50;99.90;;;;;;5075543;28;20207;-92
2022/09/30 02:20:03;;;;;;;3.30;2.97;;;8.50;99.90;;;;;;5069253;28;20243;-92
2022/09/30 02:22:39;;;;;;;4.97;3.40;;;8.50;99.90;;;;;;5065468;28;20232;-92
2022/09/30 02:25:11;;;;;;;4.20;3.05;;;8.50;99.90;;;;;;5065172;28;20298;-92
2022/09/30 02:27:41;;;;;;;4.70;3.28;;;8.50;99.90;;;;;;5066008;28;20198;-92
2022/09/30 02:30:11;;;;;;;3.17;2.88;;;8.50;99.90;;;;;;5065408;28;20211;-92
2022/09/30 02:32:41;;;;;;;2.90;2.70;;;8.50;99.90;;;;;;5065671;28;20233;-92
2022/09/30 02:35:12;;;;;;;4.35;2.95;;;8.50;99.90;;;;;;5066229;28;20229;-93
2022/09/30 02:37:47;;;;;;;3.20;2.90;;;8.50;99.90;;;;;;5065222;28;20277;-92
2022/09/30 02:40:20;;;;;;;4.68;4.00;;;8.50;99.90;;;;;;5057120;28;20181;-92
2022/09/30 02:42:51;;;;;;;4.68;3.50;;;8.50;99.90;;;;;;5066352;28;20270;-92
2022/09/30 02:45:22;;;;;;;3.50;3.20;;;8.50;99.90;;;;;;5067526;28;20234;-92
2022/09/30 02:48:06;;;;;;;4.32;3.50;;;8.50;99.90;;;;;;5066569;28;20223;-93
2022/09/30 02:50:37;;;;;;;4.43;3.42;;;8.50;99.90;;;;;;5066957;28;20578;-92
2022/09/30 02:53:19;;;;;;;4.47;3.70;;;8.50;99.90;;;;;;5066122;28;20250;-92
2022/09/30 02:56:08;;;;;;;9.57;4.13;;;8.50;99.90;;;;;;5066185;28;20205;-92
2022/09/30 02:58:40;;;;;;;3.45;3.15;;;8.50;99.90;;;;;;5065162;28;20202;-92
2022/09/30 03:01:16;;;;;;;5.22;3.90;;;8.40;99.90;;;;;;5065471;28;20317;-92
2022/09/30 03:03:46;;;;;;;4.88;3.60;;;8.40;99.90;;;;;;5067630;28;20199;-92
2022/09/30 03:06:14;;;;;;;3.10;2.85;;;8.40;99.90;;;;;;5070529;28;20253;-92
2022/09/30 03:08:48;;;;;;;5.65;3.83;;;8.40;99.90;;;;;;5072015;28;20272;-93
2022/09/30 03:11:17;;;;;;;4.97;3.60;;;8.40;99.90;;;;;;5075983;28;20238;-93
2022/09/30 03:14:22;;;;;;;3.90;3.50;;;8.40;99.90;;;;;;5064305;28;20680;-92
2022/09/30 03:17:16;;;;;;;4.72;3.47;;;8.40;99.90;;;;;;5064703;28;20198;-92
2022/09/30 03:20:50;;;;;;;4.07;3.22;;;8.40;99.90;;;;;;5065727;28;20205;-94
2022/09/30 03:24:04;;;;;;;4.28;3.58;;;8.40;99.90;;;;;;5065851;28;20244;-92
2022/09/30 03:26:39;;;;;;;4.43;3.60;;;8.50;99.90;;;;;;5073394;28;20189;-95
2022/09/30 03:29:15;;;;;;;4.32;3.40;;;8.40;99.90;;;;;;5079675;28;20196;-93
2022/09/30 03:31:57;;;;;;;5.25;3.40;;;8.40;99.90;;;;;;5092507;22;20219;-67
2022/09/30 03:34:31;;;;;;;4.40;3.65;;;8.40;99.90;;;;;;5043838;28;20217;-68
2022/09/30 03:37:02;;;;;;;5.18;4.32;;;8.40;99.90;;;;;;5052592;28;20203;-68
2022/09/30 03:39:43;;;;;;;4.90;3.90;;;8.40;99.90;;;;;;5052183;28;20204;-68
2022/09/30 03:42:16;;;;;;;10.25;4.00;;;8.40;99.90;;;;;;5051520;28;20215;-68
2022/09/30 03:44:47;;;;;;;3.60;3.30;;;8.40;99.90;;;;;;5051912;28;20227;-68
2022/09/30 03:47:17;;;;;;;4.88;3.65;;;8.40;99.90;;;;;;5052024;28;20210;-68
2022/09/30 03:49:48;;;;;;;4.82;3.85;;;8.40;99.90;;;;;;5052037;28;20596;-68
2022/09/30 03:52:16;;;;;;;3.85;3.00;;;8.40;99.90;;;;;;5051837;28;20299;-68
2022/09/30 03:54:52;;;;;;;4.00;3.60;;;8.30;99.90;;;;;;5052060;28;20229;-68
2022/09/30 03:57:19;;;;;;;4.82;4.05;;;8.30;99.90;;;;;;5051724;28;20207;-68
2022/09/30 03:59:46;;;;;;;5.45;3.80;;;8.30;99.90;;;;;;5051900;28;20666;-68
2022/09/30 04:02:13;;;;;;;6.10;3.83;;;8.30;99.90;;;;;;5051120;28;20208;-68
2022/09/30 04:04:40;;;;;;;5.05;3.20;;;8.30;99.90;;;;;;5048235;28;20213;-68
2022/09/30 04:07:09;;;;;;;4.50;3.67;;;8.30;99.90;;;;;;5029446;28;20642;-68
2022/09/30 04:09:35;;;;;;;4.22;3.55;;;8.30;99.90;;;;;;5031985;28;20210;-68
2022/09/30 04:12:04;;;;;;;6.18;4.03;;;8.30;99.90;;;;;;5031029;28;20585;-68
2022/09/30 04:14:32;;;;;;;4.95;4.00;;;8.30;99.90;;;;;;5030862;28;20220;-68
2022/09/30 04:16:59;;;;;;;4.75;3.65;;;8.20;99.90;;;;;;5031865;28;20202;-68
2022/09/30 04:19:26;;;;;;;6.68;3.40;;;8.30;99.90;;;;;;5031292;28;20204;-68
2022/09/30 04:21:53;;;;;;;4.53;4.13;;;8.20;99.90;;;;;;5031295;28;20200;-68
2022/09/30 04:24:20;;;;;;;4.22;3.80;;;8.20;99.90;;;;;;5030341;28;20820;-66
2022/09/30 04:26:47;;;;;;;4.40;3.50;;;8.20;99.90;;;;;;5031372;28;20207;-68
2022/09/30 04:29:15;;;;;;;5.30;3.83;;;8.30;99.90;;;;;;5030641;28;20205;-68
2022/09/30 04:31:42;;;;;;;6.30;3.72;;;8.30;99.90;;;;;;5028080;28;20204;-68
2022/09/30 04:34:10;;;;;;;4.38;3.63;;;8.30;99.90;;;;;;5028071;28;20231;-68
2022/09/30 04:36:37;;;;;;;4.68;3.55;;;8.20;99.90;;;;;;5027916;28;20293;-69
2022/09/30 04:39:05;;;;;;;3.97;3.42;;;8.20;99.90;;;;;;5027865;28;20199;-67
2022/09/30 04:41:32;;;;;;;3.35;3.05;;;8.20;99.90;;;;;;5027382;28;20585;-67
2022/09/30 04:44:04;;;;;;;4.97;4.07;;;8.20;99.90;;;;;;5027984;28;20248;-67
2022/09/30 04:46:35;;;;;;;4.43;3.55;;;8.10;99.90;;;;;;5030239;28;20266;-68
2022/09/30 04:49:03;;;;;;;4.60;3.70;;;8.10;99.90;;;;;;5044481;28;20199;-68
2022/09/30 04:51:30;;;;;;;5.20;4.10;;;8.00;99.90;;;;;;5050384;28;20253;-69
2022/09/30 04:53:56;;;;;;;3.80;3.40;;;8.00;99.90;;;;;;5050512;28;20228;-69
2022/09/30 04:56:25;;;;;;;4.93;4.20;;;8.00;99.90;;;;;;5050952;28;20434;-69
2022/09/30 04:58:52;;;;;;;3.70;3.40;;;7.90;99.90;;;;;;5050723;28;20210;-69
2022/09/30 05:01:18;;;;;;;4.57;3.50;;;7.90;99.90;;;;;;5050262;28;20216;-69
2022/09/30 05:03:47;;;;;;;3.85;3.20;;;7.80;99.90;;;;;;5050889;28;20316;-69
2022/09/30 05:06:14;;;;;;;4.18;3.50;;;7.80;99.90;;;;;;5050382;28;20201;-69
2022/09/30 05:08:42;;;;;;;4.80;3.95;;;7.80;99.90;;;;;;5050614;28;20212;-68
2022/09/30 05:11:13;;;;;;;4.57;3.45;;;7.70;99.90;;;;;;5050134;28;20198;-68
2022/09/30 05:13:41;;;;;;;4.25;3.45;;;7.70;99.90;;;;;;5050451;28;20227;-68
2022/09/30 05:16:09;;;;;;;5.40;4.22;;;7.70;99.90;;;;;;5050352;28;20200;-68
2022/09/30 05:18:38;;;;;;;5.78;4.60;;;7.70;99.90;;;;;;5050718;28;20208;-68
2022/09/30 05:21:06;;;;;;;5.65;3.47;;;7.70;99.90;;;;;;5050722;28;20208;-69
2022/09/30 05:23:33;;;;;;;4.75;3.47;;;7.70;99.90;;;;;;5050466;28;20213;-69
2022/09/30 05:26:00;;;;;;;7.57;3.88;;;7.70;99.90;;;;;;5050660;28;20208;-69
2022/09/30 05:28:30;;;;;;;4.18;3.38;;;7.70;99.90;;;;;;5050356;28;20216;-68
2022/09/30 05:30:58;;;;;;;4.65;4.13;;;7.70;99.90;;;;;;5050608;28;20307;-69
2022/09/30 05:33:25;;;;;;;5.05;3.90;;;7.70;99.90;;;;;;5049953;28;20285;-69
2022/09/30 05:35:52;;;;;;;4.93;3.90;;;7.60;99.90;;;;;;5050950;28;20213;-69
2022/09/30 05:38:21;;;;;;;5.63;4.25;;;7.70;99.90;;;;;;5050555;28;20208;-68
2022/09/30 05:40:47;;;;;;;4.30;3.72;;;7.60;99.90;;;;;;5050514;28;20211;-68
2022/09/30 05:43:14;;;;;;;5.53;3.45;;;7.70;99.90;;;;;;5049842;28;20215;-68
2022/09/30 05:45:41;;;;;;;5.13;3.97;;;7.70;99.90;;;;;;5051054;28;20218;-69
2022/09/30 05:48:08;;;;;;;7.63;4.88;;;7.70;99.90;;;;;;5051079;28;20579;-69
2022/09/30 05:50:35;;;;;;;7.22;4.90;;;7.70;99.90;;;;;;5051159;28;20201;-68
2022/09/30 05:53:01;;;;;;;5.68;3.70;;;7.70;99.90;;;;;;5049661;28;20224;-69
2022/09/30 05:55:30;;;;;;;4.60;3.40;;;7.80;99.90;;;;;;5050679;28;20207;-69
2022/09/30 05:57:57;;;;;;;5.60;3.60;;;7.80;99.90;;;;;;5050060;28;20212;-68
2022/09/30 06:00:23;;;;;;;4.45;3.63;;;7.80;99.90;;;;;;5050247;28;20207;-68
2022/09/30 06:02:53;;;;;;;4.88;4.00;;;7.90;99.90;;;;;;5049709;28;20231;-70
2022/09/30 06:05:20;;;;;;;6.05;4.13;;;7.90;99.90;;;;;;5050129;28;20216;-69
2022/09/30 06:07:48;;;;;;;4.22;3.60;;;7.90;99.90;;;;;;5050368;28;20266;-69
2022/09/30 06:10:14;;;;;;;3.70;3.38;;;7.90;99.90;;;;;;5050153;28;20199;-69
2022/09/30 06:12:43;;;;;;;4.72;4.30;;;7.90;99.90;;;;;;5049736;28;20209;-70
2022/09/30 06:15:10;;;;;;;6.13;4.43;;;8.00;99.90;;;;;;5049912;28;20228;-72
2022/09/30 06:17:36;;;;;;;5.35;4.63;;;8.00;99.90;;;;;;5050383;28;20202;-68
2022/09/30 06:20:04;;;;;;;4.93;4.43;;;8.10;99.90;;;;;;5050156;28;20236;-68
2022/09/30 06:22:34;;;;;;;4.82;4.20;;;8.20;99.90;;;;;;5049807;28;20240;-69
2022/09/30 06:25:02;;;;;;;4.72;4.10;;;8.30;99.90;;;;;;5050279;28;20220;-69
2022/09/30 06:27:29;;;;;;;4.97;4.35;;;8.40;99.90;;;;;;5050154;28;20204;-67
2022/09/30 06:29:57;;;;;;;5.55;4.60;;;8.50;99.90;;;;;;5050242;28;20232;-68
2022/09/30 06:32:25;;;;;;;5.25;4.57;;;8.70;99.90;;;;;;5049601;28;20209;-67
2022/09/30 06:34:54;;;;;;;5.13;3.75;;;8.70;99.90;;;;;;5050191;28;20228;-69
2022/09/30 06:37:21;;;;;;;6.82;4.80;;;8.80;99.90;;;;;;5050141;28;20261;-69
2022/09/30 06:39:49;;;;;;;5.53;4.82;;;8.90;99.90;;;;;;5053113;28;20205;-69
2022/09/30 06:42:15;;;;;;;11.00;5.45;;;9.00;99.90;;;;;;5053003;28;20236;-69
2022/09/30 06:44:42;;;;;;;6.32;5.47;;;9.10;99.90;;;;;;5053497;28;20227;-68
2022/09/30 06:47:10;;;;;;;11.00;4.80;;;9.10;99.90;;;;;;5053738;28;20209;-68
2022/09/30 06:49:37;;;;;;;7.03;5.57;;;9.20;99.90;;;;;;5053466;28;20206;-68
2022/09/30 06:52:04;;;;;;;7.68;6.50;;;9.20;99.90;;;;;;5053147;28;20202;-68
2022/09/30 06:54:30;;;;;;;5.90;4.45;;;9.30;99.90;;;;;;5053606;28;20241;-69
2022/09/30 06:56:57;;;;;;;6.65;5.85;;;9.30;99.90;;;;;;5053375;28;20207;-69
2022/09/30 06:59:25;;;;;;;6.97;5.45;;;9.30;99.90;;;;;;5053414;28;20212;-70
2022/09/30 07:01:52;;;;;;;10.02;6.40;;;9.40;99.90;;;;;;5052791;28;20251;-68
2022/09/30 07:04:20;;;;;;;6.47;5.07;;;9.40;99.90;;;;;;5052988;28;20228;-68
2022/09/30 07:06:47;;;;;;;8.35;6.32;;;9.50;99.90;;;;;;5053630;28;20638;-68
2022/09/30 07:09:13;;;;;;;5.50;5.00;;;9.50;99.90;;;;;;5052916;28;20208;-68
2022/09/30 07:11:40;;;;;;;6.13;5.53;;;9.60;99.90;;;;;;5052799;28;20366;-68
2022/09/30 07:14:09;;;;;;;6.15;5.47;;;9.60;99.90;;;;;;5052720;28;20609;-68
2022/09/30 07:16:35;;;;;;;7.88;6.07;;;9.70;99.90;;;;;;5053457;28;20562;-68
2022/09/30 07:19:03;;;;;;;6.80;5.35;;;9.70;99.90;;;;;;5052955;28;20629;-68
2022/09/30 07:21:31;;;;;;;6.00;5.38;;;9.70;99.90;;;;;;5052625;28;20215;-68
2022/09/30 07:23:59;;;;;;;7.05;5.40;;;9.80;99.90;;;;;;5053064;28;20489;-69
2022/09/30 07:26:26;;;;;;;6.88;6.15;;;9.80;99.90;;;;;;5052644;28;20205;-70
2022/09/30 07:28:53;;;;;;;7.53;6.15;;;9.80;99.90;;;;;;5052929;28;20213;-68
2022/09/30 07:31:22;;;;;;;8.43;7.05;;;9.80;99.90;;;;;;5064231;22;20412;-74
2022/09/30 07:33:51;;;;;;;6.50;5.13;;;9.80;99.90;;;;;;5057375;28;20221;-69
2022/09/30 07:36:19;;;;;;;11.00;5.60;;;9.90;99.90;;;;;;5032587;28;20226;-68
2022/09/30 07:38:48;;;;;;;10.55;6.85;;;9.90;99.90;;;;;;5032781;28;20218;-68
2022/09/30 07:41:20;;;;;;;8.77;7.93;;;9.90;99.90;;;;;;5032396;28;20295;-68
2022/09/30 07:43:48;;;;;;;7.38;6.03;;;9.90;99.90;;;;;;5032874;28;20238;-68
2022/09/30 07:46:19;;;;;;;13.13;7.68;;;9.90;99.90;;;;;;5032735;28;20198;-68
2022/09/30 07:48:48;;;;;;;10.07;6.80;;;9.90;99.90;;;;;;5032627;28;20487;-68
2022/09/30 07:51:17;;;;;;;9.70;7.05;;;9.80;99.90;;;;;;5030919;28;20752;-68
2022/09/30 07:53:47;;;;;;;8.50;6.50;;;9.80;99.90;;;;;;5032519;28;20226;-67
2022/09/30 07:56:15;;;;;;;10.82;7.35;;;9.90;99.90;;;;;;5032394;28;20708;-69
2022/09/30 07:58:41;;;;;;;10.88;7.70;;;9.90;99.90;;;;;;5032389;28;20584;-68
2022/09/30 08:01:08;;;;;;;9.52;7.50;;;9.90;99.90;;;;;;5031938;28;20212;-68
2022/09/30 08:03:38;;;;;;;9.57;6.70;;;10.00;99.90;;;;;;5038226;28;20226;-68
2022/09/30 08:06:06;;;;;;;11.38;8.40;;;10.00;99.90;;;;;;5044964;28;20293;-66
2022/09/30 08:08:34;;;;;;;11.70;7.97;;;10.00;99.90;;;;;;5050138;28;20206;-66
2022/09/30 08:11:03;;;;;;;9.63;6.93;;;10.00;99.90;;;;;;5050393;28;20300;-66
2022/09/30 08:13:30;;;;;;;12.45;8.35;;;10.00;99.90;;;;;;5049174;28;20716;-68
2022/09/30 08:15:57;;;;;;;9.13;7.90;;;10.00;99.90;;;;;;5050567;28;20235;-68
2022/09/30 08:18:24;;;;;;;8.50;7.50;;;10.00;99.90;;;;;;5049630;28;20216;-66
2022/09/30 08:20:51;;;;;;;14.20;9.32;;;10.10;99.90;;;;;;5050861;28;20292;-67
2022/09/30 08:23:18;;;;;;;13.88;9.73;;;10.10;99.90;;;;;;5049972;28;20988;-66
2022/09/30 08:25:45;;;;;;;10.60;8.55;;;10.10;99.90;;;;;;5049475;28;20200;-67
2022/09/30 08:28:14;;;;;;;13.30;9.38;;;10.10;99.90;;;;;;5042424;28;20285;-69
2022/09/30 08:30:42;;;;;;;12.35;9.23;;;10.10;99.90;;;;;;5050582;28;20209;-68
2022/09/30 08:33:09;;;;;;;15.63;10.95;;;10.20;99.90;;;;;;5049122;28;20308;-69
2022/09/30 08:35:36;;;;;;;11.40;8.73;;;10.20;99.90;;;;;;5050356;28;20230;-68
2022/09/30 08:38:03;;;;;;;19.77;9.43;;;10.30;99.90;;;;;;5050000;28;20655;-66
2022/09/30 08:40:33;;;;;;;14.52;9.40;;;10.40;99.90;;;;;;5049721;28;20263;-68
2022/09/30 08:43:20;;;;;;;12.73;8.32;;;10.40;99.90;;;;;;5049568;28;20208;-68
2022/09/30 08:45:58;;;;;;;11.32;8.20;;;10.50;99.90;;;;;;5050161;28;20201;-68
2022/09/30 08:48:35;;;;;;;11.60;8.88;;;10.60;99.90;;;;;;5049005;28;20208;-68
2022/09/30 08:51:10;;;;;;;12.32;9.20;;;10.70;99.90;;;;;;5049630;28;20220;-68
2022/09/30 08:53:40;;;;;;;12.60;9.20;;;10.80;99.90;;;;;;5049160;28;20229;-68
2022/09/30 08:56:08;;;;;;;17.90;10.48;;;10.90;99.90;;;;;;5049252;28;20219;-68
2022/09/30 08:58:40;;;;;;;12.23;9.18;;;11.00;99.90;;;;;;5049695;28;20236;-68
2022/09/30 09:01:16;;;;;;;10.85;8.60;;;11.20;99.90;;;;;;5046169;28;20202;-69
2022/09/30 09:03:44;;;;;;;11.25;7.97;;;11.30;99.90;;;;;;5030118;28;20217;-68
2022/09/30 09:06:26;;;;;;;9.50;8.10;;;11.50;99.90;;;;;;5030513;28;20213;-68
2022/09/30 09:09:11;;;;;;;12.13;8.93;;;11.70;99.90;;;;;;5029888;28;20214;-68
2022/09/30 09:11:48;;;;;;;14.85;8.18;;;12.00;99.90;;;;;;5029799;28;20198;-68
2022/09/30 09:14:29;;;;;;;14.27;8.48;;;12.30;99.90;;;;;;5029444;28;20222;-68
2022/09/30 09:17:06;;;;;;;12.05;8.73;;;12.70;99.90;;;;;;5030064;28;20605;-68
2022/09/30 09:19:37;;;;;;;10.70;8.23;;;13.00;99.90;;;;;;5030206;28;20689;-68
2022/09/30 09:22:04;;;;;;;11.25;8.30;;;13.30;99.90;;;;;;5029535;28;20952;-68
2022/09/30 09:24:38;;;;;;;9.13;6.60;;;13.50;99.90;;;;;;5029877;28;20221;-68
2022/09/30 09:27:18;;;;;;;7.67;6.80;;;13.70;99.90;;;;;;5030019;28;20630;-68
2022/09/30 09:29:55;;;;;;;8.23;6.50;;;13.90;99.90;;;;;;5030370;28;20488;-69
2022/09/30 09:32:24;;;;;;;8.60;6.20;;;14.10;99.90;;;;;;5028810;28;21227;-68
2022/09/30 09:34:55;;;;;;;7.03;5.00;;;14.20;99.90;;;;;;5030011;28;20493;-68
2022/09/30 09:40:21;;;;;;;6.30;4.53;;;14.50;99.90;;;;;;5029423;28;20445;-68
2022/09/30 09:43:02;;;;;;;7.00;4.70;;;14.70;99.90;;;;;;5029859;28;20468;-68
2022/09/30 09:45:37;;;;;;;5.30;4.23;;;14.70;99.90;;;;;;5029329;28;20457;-68
2022/09/30 09:48:10;;;;;;;5.27;4.73;;;14.70;99.90;;;;;;5035343;28;20820;-68
2022/09/30 09:50:46;;;;;;;5.30;4.43;;;14.80;99.90;;;;;;5048511;28;20526;-68
2022/09/30 09:53:29;;;;;;;5.57;5.07;;;14.90;99.90;;;;;;5040731;28;20475;-69
2022/09/30 09:55:58;;;;;;;6.00;5.07;;;15.20;99.90;;;;;;5049322;28;21054;-68
2022/09/30 09:58:26;;;;;;;6.17;4.63;;;15.30;99.90;;;;;;5049346;28;20470;-69
2022/09/30 10:01:30;;;;;;;4.47;4.07;;;15.50;99.90;;;;;;5049364;28;20464;-68
2022/09/30 10:04:09;;;;;;;6.40;3.90;;;15.60;99.90;;;;;;5049012;28;20471;-68
2022/09/30 10:06:52;;;;;;;4.93;3.70;;;15.50;99.90;;;;;;5049209;28;20467;-68
2022/09/30 10:09:28;;;;;;;4.30;3.90;;;15.50;99.90;;;;;;5048584;28;21020;-68
2022/09/30 10:12:18;;;;;;;5.90;4.03;;;15.40;99.90;;;;;;5048706;28;20467;-68
2022/09/30 10:14:52;;;;;;;4.73;4.23;;;15.40;99.90;;;;;;5051895;28;20523;-68
2022/09/30 10:17:24;;;;;;;5.70;4.73;;;15.50;99.90;;;;;;5053141;28;20844;-68
2022/09/30 10:19:54;;;;;;;4.50;4.10;;;15.60;99.90;;;;;;5053278;28;20500;-68
2022/09/30 10:22:26;;;;;;;4.40;3.87;;;15.80;99.90;;;;;;5052414;28;20958;-68
2022/09/30 10:25:10;;;;;;;4.40;3.60;;;16.00;99.90;;;;;;5053091;28;20482;-68
2022/09/30 10:27:37;;;;;;;4.17;3.77;;;16.00;99.90;;;;;;5052218;28;20474;-68
2022/09/30 10:30:05;;;;;;;7.50;4.23;;;16.10;99.90;;;;;;5052583;28;20466;-68
2022/09/30 10:32:33;;;;;;;4.40;3.57;;;15.80;99.90;;;;;;5052055;28;20475;-68
2022/09/30 10:35:04;;;;;;;4.50;3.20;;;15.80;99.90;;;;;;5052675;28;20530;-68
2022/09/30 10:37:31;;;;;;;3.50;3.10;;;15.90;99.90;;;;;;5052866;28;20470;-68
2022/09/30 10:40:01;;;;;;;4.20;3.80;;;16.10;99.90;;;;;;5053289;28;20471;-68
2022/09/30 10:42:30;;;;;;;4.53;3.40;;;16.30;99.90;;;;;;5049080;28;20492;-68
2022/09/30 10:45:01;;;;;;;3.23;2.93;;;16.60;99.90;;;;;;5056110;28;21016;-68
2022/09/30 10:47:30;;;;;;;3.83;2.77;;;16.90;99.90;;;;;;5052994;28;20976;-68
2022/09/30 10:50:03;;;;;;;3.53;2.70;;;17.00;99.90;;;;;;5052309;28;20468;-68
2022/09/30 10:52:33;;;;;;;3.60;2.80;;;17.00;99.90;;;;;;5052156;28;20880;-68
2022/09/30 10:55:05;;;;;;;3.17;2.60;;;17.20;99.90;;;;;;5052722;28;20487;-68
2022/09/30 10:57:35;;;;;;;2.80;2.30;;;17.30;99.90;;;;;;5052223;28;20462;-68
2022/09/30 11:00:05;;;;;;;2.40;2.20;;;17.40;99.90;;;;;;5052220;28;20451;-68
2022/09/30 11:02:39;;;;;;;2.83;2.07;;;17.30;99.90;;;;;;5052160;28;20471;-68
2022/09/30 11:05:17;;;;;;;2.30;2.10;;;16.80;99.90;;;;;;5052388;28;20480;-68
2022/09/30 11:07:49;;;;;;;2.43;2.23;;;16.90;99.90;;;;;;5051884;28;20472;-68
2022/09/30 11:10:32;;;;;;;2.30;2.00;;;17.10;99.90;;;;;;5044685;28;20827;-68
2022/09/30 11:13:06;;;;;;;2.10;1.70;;;17.20;99.90;;;;;;5051931;28;20460;-68
2022/09/30 11:15:42;;;;;;;5.83;2.17;;;17.30;99.90;;;;;;5051929;28;20487;-69
2022/09/30 11:18:18;;;;;;;3.03;2.63;;;17.40;99.90;;;;;;5052326;28;20471;-68
2022/09/30 11:20:51;;;;;;;4.30;2.60;;;17.50;99.90;;;;;;5051629;28;20466;-68
2022/09/30 11:23:23;;;;;;;2.93;2.50;;;17.70;99.90;;;;;;5051617;28;21054;-68
2022/09/30 11:26:00;;;;;;;4.83;2.60;;;17.80;99.90;;;;;;5052082;28;20460;-68
2022/09/30 11:28:40;;;;;;;2.63;2.33;;;17.80;99.90;;;;;;5052063;28;21084;-68
2022/09/30 11:31:18;;;;;;;3.30;2.63;;;17.90;99.90;;;;;;5052021;28;20470;-68
2022/09/30 11:33:59;;;;;;;3.70;2.00;;;18.10;99.90;;;;;;5051702;28;21034;-68
2022/09/30 11:36:37;;;;;;;3.30;2.60;;;18.20;99.90;;;;;;5051499;28;20491;-68
2022/09/30 11:39:44;;;;;;;2.37;1.87;;;18.30;99.90;;;;;;5051259;28;20463;-68
2022/09/30 11:42:17;;;;;;;2.60;2.40;;;18.40;99.90;;;;;;5050987;28;20837;-68
2022/09/30 11:44:45;;;;;;;3.13;2.00;;;18.40;99.90;;;;;;5050679;28;21002;-68
2022/09/30 11:47:33;;;;;;;2.10;1.87;;;18.50;99.90;;;;;;5043277;28;20840;-68
2022/09/30 11:50:17;;;;;;;1.90;1.67;;;18.20;99.90;;;;;;5051166;28;20464;-68
2022/09/30 11:52:57;;;;;;;2.50;2.23;;;18.30;99.90;;;;;;5050834;28;20459;-68
2022/09/30 11:55:44;;;;;;;1.80;1.70;;;18.40;99.90;;;;;;5051487;28;20483;-68
2022/09/30 11:58:14;;;;;;;2.20;1.80;;;18.50;99.90;;;;;;5050338;28;20464;-68
2022/09/30 12:00:45;;;;;;;2.90;2.40;;;18.50;99.90;;;;;;5051428;28;20467;-68
2022/09/30 12:03:18;;;;;;;2.40;1.97;;;18.60;99.90;;;;;;5042141;28;20480;-68
2022/09/30 12:05:48;;;;;;;2.07;1.77;;;18.80;99.90;;;;;;5051230;28;20825;-68
2022/09/30 12:08:20;;;;;;;2.40;2.20;;;18.90;99.90;;;;;;5050931;28;20464;-68
2022/09/30 12:10:51;;;;;;;2.90;2.60;;;19.00;99.90;;;;;;5050651;28;20459;-68
2022/09/30 12:13:25;;;;;;;2.73;2.53;;;19.10;99.90;;;;;;5049888;28;20519;-68
2022/09/30 12:15:54;;;;;;;4.40;2.03;;;19.20;99.90;;;;;;5050890;28;20580;-68
2022/09/30 12:18:25;;;;;;;2.33;2.13;;;19.10;99.90;;;;;;5050757;28;20464;-68
2022/09/30 12:20:56;;;;;;;2.70;2.20;;;19.20;99.90;;;;;;5050155;28;20496;-68
2022/09/30 12:23:31;;;;;;;3.93;2.30;;;19.10;99.90;;;;;;5050171;28;20995;-68
2022/09/30 12:25:59;;;;;;;2.23;2.00;;;19.20;99.90;;;;;;5051092;28;20456;-68
2022/09/30 12:31:39;;;;;;;3.53;2.20;;;19.30;99.90;;;;;;5049711;28;20447;-68
2022/09/30 12:34:22;;;;;;;3.77;1.97;;;19.40;99.90;;;;;;5049484;28;20503;-68
2022/09/30 12:37:02;;;;;;;3.87;1.50;;;19.40;99.90;;;;;;5049740;28;20498;-68
2022/09/30 12:39:56;;;;;;;1.80;1.40;;;19.30;99.90;;;;;;5050385;28;20466;-68
2022/09/30 12:42:48;;;;;;;1.80;1.60;;;19.30;99.90;;;;;;5042986;28;20888;-68
2022/09/30 12:45:53;;;;;;;1.70;1.47;;;19.40;99.90;;;;;;5042067;28;20472;-67
2022/09/30 12:48:23;;;;;;;2.20;1.50;;;19.50;99.90;;;;;;5028094;28;20456;-68
2022/09/30 12:50:53;;;;;;;2.00;1.70;;;19.30;99.90;;;;;;5049805;28;20856;-68
2022/09/30 12:53:25;;;;;;;2.77;1.33;;;19.00;99.90;;;;;;5049172;28;20819;-68
2022/09/30 12:55:54;;;;;;;2.20;1.60;;;18.40;99.90;;;;;;5050144;28;20484;-68
2022/09/30 12:58:26;;;;;;;2.00;1.40;;;17.90;99.90;;;;;;5068421;28;20481;-66
2022/09/30 13:01:01;;;;;;;1.47;1.30;;;17.50;99.90;;;;;;5069627;28;20467;-68
2022/09/30 13:03:28;;;;;;;1.57;1.30;;;17.20;99.90;;;;;;5068246;28;21024;-68
2022/09/30 13:05:58;;;;;;;2.37;1.60;;;16.90;99.90;;;;;;5069148;28;20955;-66
2022/09/30 13:08:48;;;;;;;2.20;1.20;;;16.70;99.90;;;;;;5069021;28;20487;-68
2022/09/30 13:11:36;;;;;;;1.33;1.23;;;16.50;99.90;;;;;;5068180;28;20494;-68
2022/09/30 13:14:14;;;;;;;1.27;1.13;;;16.30;99.90;;;;;;5068558;28;21017;-68
2022/09/30 13:17:19;;;;;;;3.30;1.50;;;16.20;99.90;;;;;;5068867;28;20490;-68
2022/09/30 13:19:50;;;;;;;2.30;1.40;;;16.00;99.90;;;;;;5068629;28;20486;-68
2022/09/30 13:22:44;;;;;;;1.40;1.30;;;15.80;99.90;;;;;;5067916;28;20498;-68
2022/09/30 13:25:13;;;;;;;2.10;1.20;;;15.70;99.90;;;;;;5068955;28;20482;-68
2022/09/30 13:27:43;;;;;;;2.17;1.57;;;15.70;99.90;;;;;;5068316;28;20470;-68
2022/09/30 13:30:35;;;;;;;2.10;1.10;;;15.50;99.90;;;;;;5068901;28;20459;-68